createdAt,value
2023-05-19T00:00:14.917Z,10.51
2023-05-19T00:03:09.476Z,10.55
2023-05-19T00:05:45.823Z,10.52
2023-05-19T00:08:19.996Z,10.46
2023-05-19T00:10:53.118Z,10.47
2023-05-19T00:13:26.475Z,10.43
2023-05-19T00:15:59.470Z,10.40
2023-05-19T00:18:31.580Z,10.31
2023-05-19T00:21:03.772Z,10.30
2023-05-19T00:23:35.939Z,10.29
2023-05-19T00:26:08.004Z,10.33
2023-05-19T00:28:40.310Z,10.37
2023-05-19T00:31:12.376Z,10.38
2023-05-19T00:33:44.476Z,10.43
2023-05-19T00:36:16.718Z,10.45
2023-05-19T00:38:48.854Z,10.40
2023-05-19T00:41:21.124Z,10.35
2023-05-19T00:43:53.708Z,10.31
2023-05-19T00:46:26.020Z,10.32
2023-05-19T00:48:58.353Z,10.29
2023-05-19T00:51:31.507Z,10.26
2023-05-19T00:54:04.016Z,10.24
2023-05-19T00:56:36.390Z,10.20
2023-05-19T00:59:09.169Z,10.19
2023-05-19T01:01:41.918Z,10.24
2023-05-19T01:04:16.972Z,10.26
2023-05-19T01:06:54.981Z,10.26
2023-05-19T01:09:27.181Z,10.24
2023-05-19T01:11:59.900Z,10.19
2023-05-19T01:14:32.861Z,10.15
2023-05-19T01:17:15.305Z,10.14
2023-05-19T01:20:02.325Z,10.11
2023-05-19T01:22:55.087Z,10.05
2023-05-19T01:25:50.845Z,10.08
2023-05-19T01:28:47.743Z,10.11
2023-05-19T01:31:23.948Z,10.16
2023-05-19T01:33:58.181Z,10.25
2023-05-19T01:36:32.907Z,10.27
2023-05-19T01:39:05.927Z,10.25
2023-05-19T01:41:39.503Z,10.22
2023-05-19T01:44:14.762Z,10.11
2023-05-19T01:46:47.037Z,10.02
2023-05-19T01:49:19.050Z,9.96
2023-05-19T01:51:51.941Z,9.89
2023-05-19T01:54:24.030Z,9.91
2023-05-19T01:57:06.566Z,9.94
2023-05-19T01:59:53.736Z,9.98
2023-05-19T02:02:39.137Z,10.06
2023-05-19T02:05:19.956Z,10.10
2023-05-19T02:08:05.900Z,10.08
2023-05-19T02:10:43.671Z,10.06
2023-05-19T02:13:19.028Z,10.01
2023-05-19T02:15:53.401Z,9.97
2023-05-19T02:18:25.709Z,9.93
2023-05-19T02:20:57.795Z,9.87
2023-05-19T02:23:29.999Z,9.78
2023-05-19T02:26:02.741Z,9.76
2023-05-19T02:28:34.845Z,9.78
2023-05-19T02:31:09.134Z,9.80
2023-05-19T02:33:41.536Z,9.81
2023-05-19T02:36:15.022Z,9.84
2023-05-19T02:38:47.057Z,9.84
2023-05-19T02:41:19.269Z,9.83
2023-05-19T02:43:51.301Z,9.81
2023-05-19T02:46:23.414Z,9.81
2023-05-19T02:48:55.731Z,9.85
2023-05-19T02:51:27.821Z,9.86
2023-05-19T02:54:00.075Z,9.86
2023-05-19T02:56:32.341Z,9.88
2023-05-19T02:59:04.410Z,9.81
2023-05-19T03:01:37.882Z,9.73
2023-05-19T03:04:10.642Z,9.70
2023-05-19T03:06:45.441Z,9.68
2023-05-19T03:09:17.512Z,9.65
2023-05-19T03:11:49.621Z,9.60
2023-05-19T03:14:24.818Z,9.61
2023-05-19T03:16:57.319Z,9.69
2023-05-19T03:19:32.612Z,9.73
2023-05-19T03:22:05.117Z,9.69
2023-05-19T03:24:38.450Z,9.70
2023-05-19T03:27:11.168Z,9.60
2023-05-19T03:29:43.502Z,9.53
2023-05-19T03:32:15.726Z,9.52
2023-05-19T03:34:48.004Z,9.52
2023-05-19T03:37:20.393Z,9.51
2023-05-19T03:39:52.559Z,9.51
2023-05-19T03:42:27.362Z,9.53
2023-05-19T03:44:59.624Z,9.53
2023-05-19T03:47:32.866Z,9.50
2023-05-19T03:50:25.312Z,9.45
2023-05-19T03:53:01.833Z,9.44
2023-05-19T03:55:37.480Z,9.40
2023-05-19T03:58:10.874Z,9.40
2023-05-19T04:00:43.869Z,9.42
2023-05-19T04:03:16.169Z,9.49
2023-05-19T04:05:48.726Z,9.61
2023-05-19T04:08:21.045Z,9.69
2023-05-19T04:10:53.274Z,9.77
2023-05-19T04:13:25.877Z,9.83
2023-05-19T04:15:58.163Z,9.86
2023-05-19T04:18:31.714Z,9.87
2023-05-19T04:21:03.894Z,9.84
2023-05-19T04:23:36.050Z,9.86
2023-05-19T04:26:10.366Z,9.89
2023-05-19T04:28:45.000Z,10.00
2023-05-19T04:31:17.645Z,10.08
2023-05-19T04:33:50.308Z,10.03
2023-05-19T04:36:22.651Z,10.03
2023-05-19T04:39:02.958Z,10.04
2023-05-19T04:41:35.596Z,10.04
2023-05-19T04:44:09.194Z,10.04
2023-05-19T04:46:42.907Z,10.02
2023-05-19T04:49:15.654Z,10.05
2023-05-19T04:51:50.843Z,10.08
2023-05-19T04:54:29.506Z,10.19
2023-05-19T04:57:02.202Z,10.33
2023-05-19T04:59:35.115Z,10.39
2023-05-19T05:02:07.966Z,10.41
2023-05-19T05:04:44.261Z,10.43
2023-05-19T05:07:16.553Z,10.45
2023-05-19T05:09:49.385Z,10.45
2023-05-19T05:12:23.188Z,10.53
2023-05-19T05:14:56.686Z,10.57
2023-05-19T05:17:29.890Z,10.63
2023-05-19T05:20:03.404Z,10.78
2023-05-19T05:22:38.778Z,10.85
2023-05-19T05:25:14.779Z,10.90
2023-05-19T05:27:48.063Z,10.93
2023-05-19T05:30:20.398Z,10.96
2023-05-19T05:32:52.824Z,10.98
2023-05-19T05:35:39.463Z,10.97
2023-05-19T05:38:12.676Z,11.04
2023-05-19T05:40:45.068Z,11.07
2023-05-19T05:43:17.449Z,11.16
2023-05-19T05:45:53.806Z,11.24
2023-05-19T05:48:27.388Z,11.28
2023-05-19T05:51:01.174Z,11.35
2023-05-19T05:53:43.156Z,11.42
2023-05-19T05:56:17.459Z,11.42
2023-05-19T05:58:54.486Z,11.52
2023-05-19T06:01:26.863Z,11.55
2023-05-19T06:03:59.382Z,11.62
2023-05-19T06:06:32.921Z,11.72
2023-05-19T06:09:06.816Z,11.83
2023-05-19T06:11:39.121Z,11.87
2023-05-19T06:14:11.679Z,11.93
2023-05-19T06:17:09.691Z,11.90
2023-05-19T06:19:42.130Z,11.91
2023-05-19T06:22:14.627Z,11.96
2023-05-19T06:24:46.846Z,12.03
2023-05-19T06:27:19.237Z,12.13
2023-05-19T06:29:52.252Z,12.21
2023-05-19T06:32:26.603Z,12.24
2023-05-19T06:34:58.964Z,12.28
2023-05-19T06:37:31.232Z,12.35
2023-05-19T06:40:04.363Z,12.46
2023-05-19T06:42:37.269Z,12.58
2023-05-19T06:45:22.507Z,12.73
2023-05-19T06:47:58.364Z,12.86
2023-05-19T06:50:31.187Z,13.00
2023-05-19T06:53:03.788Z,13.15
2023-05-19T06:55:43.870Z,13.15
2023-05-19T06:58:24.605Z,13.19
2023-05-19T07:00:57.377Z,13.26
2023-05-19T07:03:31.436Z,13.18
2023-05-19T07:06:05.743Z,13.15
2023-05-19T07:08:38.405Z,13.17
2023-05-19T07:11:12.523Z,13.13
2023-05-19T07:13:45.413Z,13.04
2023-05-19T07:16:18.105Z,12.99
2023-05-19T07:18:50.370Z,13.02
2023-05-19T07:21:22.630Z,13.07
2023-05-19T07:23:55.481Z,13.10
2023-05-19T07:26:28.213Z,13.17
2023-05-19T07:29:00.559Z,13.21
2023-05-19T07:31:32.886Z,13.24
2023-05-19T07:34:06.538Z,13.33
2023-05-19T07:36:38.712Z,13.43
2023-05-19T07:39:11.183Z,13.48
2023-05-19T07:41:43.661Z,13.47
2023-05-19T07:44:15.825Z,13.43
2023-05-19T07:46:48.095Z,13.44
2023-05-19T07:49:20.585Z,13.48
2023-05-19T07:51:53.015Z,13.55
2023-05-19T07:54:25.125Z,13.58
2023-05-19T07:56:57.551Z,13.59
2023-05-19T07:59:29.847Z,13.68
2023-05-19T08:02:02.232Z,13.78
2023-05-19T08:04:34.802Z,13.80
2023-05-19T08:07:07.132Z,13.80
2023-05-19T08:09:39.578Z,13.81
2023-05-19T08:12:11.853Z,13.85
2023-05-19T08:14:44.021Z,13.83
2023-05-19T08:17:16.460Z,13.76
2023-05-19T08:19:48.715Z,13.70
2023-05-19T08:22:20.915Z,13.62
2023-05-19T08:24:53.007Z,13.55
2023-05-19T08:27:25.367Z,13.49
2023-05-19T08:29:57.551Z,13.53
2023-05-19T08:32:29.717Z,13.53
2023-05-19T08:35:01.941Z,13.51
2023-05-19T08:37:34.258Z,13.54
2023-05-19T08:40:09.077Z,13.54
2023-05-19T08:42:41.410Z,13.53
2023-05-19T08:45:14.348Z,13.58
2023-05-19T08:47:48.812Z,13.56
2023-05-19T08:50:36.748Z,13.51
2023-05-19T08:53:28.969Z,13.52
2023-05-19T08:56:11.428Z,13.60
2023-05-19T08:58:44.349Z,13.69
2023-05-19T09:01:18.191Z,13.90
2023-05-19T09:03:50.948Z,14.06
2023-05-19T09:06:23.382Z,14.14
2023-05-19T09:08:58.019Z,14.22
2023-05-19T09:11:30.747Z,14.36
2023-05-19T09:14:02.850Z,14.44
2023-05-19T09:16:35.793Z,14.48
2023-05-19T09:19:15.637Z,14.57
2023-05-19T09:21:47.747Z,14.70
2023-05-19T09:24:20.360Z,14.74
2023-05-19T09:26:52.410Z,14.76
2023-05-19T09:29:25.154Z,14.79
2023-05-19T09:32:01.160Z,14.87
2023-05-19T09:34:33.838Z,14.99
2023-05-19T09:37:06.111Z,15.06
2023-05-19T09:39:39.963Z,15.03
2023-05-19T09:42:12.124Z,14.99
2023-05-19T09:44:44.329Z,15.06
2023-05-19T09:47:18.072Z,15.14
2023-05-19T09:49:52.284Z,15.08
2023-05-19T09:52:24.556Z,15.05
2023-05-19T09:54:58.093Z,15.09
2023-05-19T09:57:34.610Z,15.17
2023-05-19T10:00:25.998Z,15.20
2023-05-19T10:02:58.928Z,15.17
2023-05-19T10:05:32.700Z,15.17
2023-05-19T10:08:10.534Z,15.19
2023-05-19T10:10:42.751Z,15.15
2023-05-19T10:13:15.710Z,15.11
2023-05-19T10:18:29.589Z,15.11
2023-05-19T10:21:03.716Z,15.14
2023-05-19T10:23:35.941Z,15.18
2023-05-19T10:26:09.780Z,15.18
2023-05-19T10:28:44.650Z,15.22
2023-05-19T10:31:23.498Z,15.19
2023-05-19T10:34:15.631Z,15.27
2023-05-19T10:36:51.779Z,15.45
2023-05-19T10:39:27.964Z,15.58
2023-05-19T10:42:10.981Z,15.70
2023-05-19T10:44:59.916Z,15.77
2023-05-19T10:47:32.703Z,15.79
2023-05-19T10:50:06.847Z,15.88
2023-05-19T10:52:41.966Z,15.90
2023-05-19T10:55:17.765Z,15.74
2023-05-19T10:57:58.166Z,15.66
2023-05-19T11:00:34.890Z,15.64
2023-05-19T11:03:17.906Z,15.68
2023-05-19T11:05:52.515Z,15.75
2023-05-19T11:08:36.542Z,15.75
2023-05-19T11:11:17.809Z,15.79
2023-05-19T11:13:55.183Z,15.78
2023-05-19T11:16:35.867Z,15.83
2023-05-19T11:19:09.529Z,15.88
2023-05-19T11:21:55.036Z,15.82
2023-05-19T11:24:44.795Z,15.61
2023-05-19T11:27:29.193Z,15.58
2023-05-19T11:30:02.488Z,15.66
2023-05-19T11:32:36.061Z,15.75
2023-05-19T11:35:10.460Z,15.67
2023-05-19T11:37:43.811Z,15.56
2023-05-19T11:40:18.646Z,15.47
2023-05-19T11:42:50.915Z,15.49
2023-05-19T11:45:29.106Z,15.47
2023-05-19T11:48:04.436Z,15.53
2023-05-19T11:50:38.451Z,15.51
2023-05-19T11:53:15.007Z,15.45
2023-05-19T11:55:49.207Z,15.38
2023-05-19T11:58:29.119Z,15.39
2023-05-19T12:01:06.834Z,15.44
2023-05-19T12:03:39.144Z,15.52
2023-05-19T12:06:13.659Z,15.54
2023-05-19T12:08:46.431Z,15.60
2023-05-19T12:11:20.120Z,15.62
2023-05-19T12:13:56.571Z,15.71
2023-05-19T12:16:35.784Z,15.78
2023-05-19T12:19:09.711Z,15.90
2023-05-19T12:21:42.392Z,16.04
2023-05-19T12:24:14.811Z,16.14
2023-05-19T12:26:47.382Z,16.15
2023-05-19T12:29:19.482Z,16.18
2023-05-19T12:31:51.629Z,16.14
2023-05-19T12:34:24.389Z,16.17
2023-05-19T12:36:56.806Z,16.18
2023-05-19T12:39:29.604Z,16.18
2023-05-19T12:42:09.002Z,16.21
2023-05-19T12:44:44.082Z,16.25
2023-05-19T12:47:17.120Z,16.34
2023-05-19T12:50:02.681Z,16.38
2023-05-19T12:52:36.226Z,16.40
2023-05-19T12:55:11.884Z,16.45
2023-05-19T12:57:46.027Z,16.51
2023-05-19T13:00:22.040Z,16.49
2023-05-19T13:03:02.975Z,16.49
2023-05-19T13:05:39.661Z,16.53
2023-05-19T13:08:13.591Z,16.63
2023-05-19T13:10:47.421Z,16.71
2023-05-19T13:13:19.999Z,16.83
2023-05-19T13:15:52.469Z,16.89
2023-05-19T13:18:24.662Z,16.95
2023-05-19T13:20:57.123Z,16.96
2023-05-19T13:23:29.577Z,16.91
2023-05-19T13:26:01.796Z,16.85
2023-05-19T13:28:34.010Z,16.79
2023-05-19T13:31:06.427Z,16.77
2023-05-19T13:33:38.816Z,16.74
2023-05-19T13:36:10.988Z,16.75
2023-05-19T13:38:43.062Z,16.81
2023-05-19T13:41:16.052Z,16.84
2023-05-19T13:43:48.456Z,16.87
2023-05-19T13:46:26.635Z,16.91
2023-05-19T13:49:05.238Z,16.91
2023-05-19T13:51:37.776Z,16.85
2023-05-19T13:54:11.609Z,16.79
2023-05-19T13:56:46.110Z,16.73
2023-05-19T13:59:18.649Z,16.69
2023-05-19T14:01:50.784Z,16.68
2023-05-19T14:04:23.874Z,16.72
2023-05-19T14:06:57.255Z,16.76
2023-05-19T14:09:29.870Z,16.76
2023-05-19T14:12:02.431Z,16.78
2023-05-19T14:14:34.871Z,16.81
2023-05-19T14:17:07.509Z,16.81
2023-05-19T14:19:39.630Z,16.78
2023-05-19T14:22:13.555Z,16.79
2023-05-19T14:24:45.596Z,16.70
2023-05-19T14:27:17.753Z,16.64
2023-05-19T14:29:50.111Z,16.59
2023-05-19T14:32:23.247Z,16.54
2023-05-19T14:34:55.748Z,16.53
2023-05-19T14:37:29.111Z,16.54
2023-05-19T14:40:04.649Z,16.52
2023-05-19T14:42:36.820Z,16.47
2023-05-19T14:45:10.877Z,16.47
2023-05-19T14:47:42.983Z,16.46
2023-05-19T14:50:15.111Z,16.48
2023-05-19T14:52:47.209Z,16.48
2023-05-19T14:55:19.446Z,16.47
2023-05-19T14:57:51.446Z,16.48
2023-05-19T15:00:26.263Z,16.49
2023-05-19T15:02:58.598Z,16.51
2023-05-19T15:05:30.744Z,16.51
2023-05-19T15:08:06.053Z,16.51
2023-05-19T15:10:38.457Z,16.45
2023-05-19T15:13:12.031Z,16.40
2023-05-19T15:15:44.373Z,16.34
2023-05-19T15:18:18.920Z,16.29
2023-05-19T15:20:51.194Z,16.25
2023-05-19T15:23:23.380Z,16.21
2023-05-19T15:25:55.619Z,16.17
2023-05-19T15:28:28.216Z,16.15
2023-05-19T15:31:00.382Z,16.09
2023-05-19T15:33:32.527Z,16.01
2023-05-19T15:36:04.751Z,15.92
2023-05-19T15:38:38.126Z,15.85
2023-05-19T15:41:11.924Z,15.80
2023-05-19T15:43:46.554Z,15.74
2023-05-19T15:46:19.922Z,15.71
2023-05-19T15:48:52.025Z,15.69
2023-05-19T15:51:24.207Z,15.70
2023-05-19T15:53:56.311Z,15.75
2023-05-19T15:56:28.390Z,15.81
2023-05-19T15:59:00.488Z,15.82
2023-05-19T16:01:32.723Z,15.80
2023-05-19T16:04:05.164Z,15.72
2023-05-19T16:06:37.438Z,15.70
2023-05-19T16:09:09.671Z,15.65
2023-05-19T16:11:41.884Z,15.57
2023-05-19T16:14:14.459Z,15.51
2023-05-19T16:16:46.684Z,15.47
2023-05-19T16:19:18.965Z,15.41
2023-05-19T16:21:51.170Z,15.34
2023-05-19T16:24:23.234Z,15.34
2023-05-19T16:26:55.773Z,15.27
2023-05-19T16:29:27.964Z,15.24
2023-05-19T16:32:00.282Z,15.16
2023-05-19T16:34:32.737Z,15.16
2023-05-19T16:37:05.117Z,15.16
2023-05-19T16:39:38.261Z,15.12
2023-05-19T16:42:10.461Z,15.12
2023-05-19T16:44:43.508Z,15.13
2023-05-19T16:47:15.713Z,15.12
2023-05-19T16:49:47.890Z,15.07
2023-05-19T16:52:21.404Z,15.02
2023-05-19T16:54:53.553Z,14.96
2023-05-19T16:57:25.894Z,14.94
2023-05-19T16:59:57.992Z,14.93
2023-05-19T17:02:30.361Z,14.91
2023-05-19T17:05:02.548Z,14.86
2023-05-19T17:07:34.621Z,14.83
2023-05-19T17:10:07.602Z,14.77
2023-05-19T17:12:39.729Z,14.77
2023-05-19T17:15:13.232Z,14.79
2023-05-19T17:17:45.409Z,14.81
2023-05-19T17:20:17.971Z,14.83
2023-05-19T17:22:50.131Z,14.82
2023-05-19T17:25:22.302Z,14.84
2023-05-19T17:27:56.005Z,14.81
2023-05-19T17:30:28.378Z,14.76
2023-05-19T17:33:01.217Z,14.74
2023-05-19T17:35:34.398Z,14.70
2023-05-19T17:38:06.875Z,14.68
2023-05-19T17:40:41.877Z,14.67
2023-05-19T17:43:14.367Z,14.63
2023-05-19T17:45:46.742Z,14.62
2023-05-19T17:48:19.114Z,14.58
2023-05-19T17:50:51.708Z,14.56
2023-05-19T17:53:24.656Z,14.55
2023-05-19T17:56:01.571Z,14.55
2023-05-19T17:58:35.176Z,14.56
2023-05-19T18:01:07.978Z,14.59
2023-05-19T18:03:41.513Z,14.62
2023-05-19T18:06:14.000Z,14.61
2023-05-19T18:08:50.531Z,14.60
2023-05-19T18:11:24.014Z,14.53
2023-05-19T18:13:56.391Z,14.44
2023-05-19T18:16:29.708Z,14.36
2023-05-19T18:19:02.061Z,14.33
2023-05-19T18:21:34.424Z,14.28
2023-05-19T18:24:07.232Z,14.28
2023-05-19T18:26:42.282Z,14.30
2023-05-19T18:29:14.815Z,14.28
2023-05-19T18:31:47.120Z,14.30
2023-05-19T18:34:19.277Z,14.29
2023-05-19T18:36:51.543Z,14.29
2023-05-19T18:39:23.875Z,14.28
2023-05-19T18:41:56.216Z,14.22
2023-05-19T18:44:28.505Z,14.19
2023-05-19T18:47:00.771Z,14.13
2023-05-19T18:49:33.181Z,14.05
2023-05-19T18:52:05.559Z,14.01
2023-05-19T18:54:37.899Z,13.95
2023-05-19T18:57:10.416Z,13.90
2023-05-19T18:59:42.842Z,13.86
2023-05-19T19:02:15.166Z,13.79
2023-05-19T19:04:47.648Z,13.79
2023-05-19T19:07:20.178Z,13.78
2023-05-19T19:09:53.208Z,13.77
2023-05-19T19:12:26.427Z,13.77
2023-05-19T19:15:00.289Z,13.76
2023-05-19T19:17:35.714Z,13.72
2023-05-19T19:20:11.247Z,13.72
2023-05-19T19:22:43.591Z,13.77
2023-05-19T19:25:18.168Z,13.79
2023-05-19T19:27:50.726Z,13.78
2023-05-19T19:30:23.045Z,13.79
2023-05-19T19:32:57.121Z,13.74
2023-05-19T19:35:29.315Z,13.72
2023-05-19T19:38:04.405Z,13.75
2023-05-19T19:40:37.541Z,13.74
2023-05-19T19:43:10.107Z,13.74
2023-05-19T19:45:42.539Z,13.73
2023-05-19T19:48:23.394Z,13.73
2023-05-19T19:50:58.230Z,13.75
2023-05-19T19:53:30.924Z,13.75
2023-05-19T19:56:07.361Z,13.73
2023-05-19T19:58:39.631Z,13.67
2023-05-19T20:01:27.937Z,13.71
2023-05-19T20:04:01.059Z,13.72
2023-05-19T20:06:33.454Z,13.74
2023-05-19T20:09:06.031Z,13.71
2023-05-19T20:11:38.559Z,13.67
2023-05-19T20:14:10.932Z,13.64
2023-05-19T20:16:43.211Z,13.62
2023-05-19T20:19:15.616Z,13.60
2023-05-19T20:21:47.991Z,13.56
2023-05-19T20:24:20.164Z,13.49
2023-05-19T20:26:52.310Z,13.49
2023-05-19T20:29:24.907Z,13.49
2023-05-19T20:31:59.210Z,13.51
2023-05-19T20:34:31.435Z,13.56
2023-05-19T20:37:03.624Z,13.55
2023-05-19T20:39:35.848Z,13.55
2023-05-19T20:42:09.038Z,13.62
2023-05-19T20:44:41.277Z,13.66
2023-05-19T20:47:13.431Z,13.62
2023-05-19T20:49:45.631Z,13.59
2023-05-19T20:52:20.382Z,13.59
2023-05-19T20:54:52.698Z,13.57
2023-05-19T20:57:26.143Z,13.56
2023-05-19T21:00:48.932Z,13.56
2023-05-19T21:03:24.322Z,13.54
2023-05-19T21:05:56.793Z,13.48
2023-05-19T21:08:29.959Z,13.44
2023-05-19T21:11:02.198Z,13.41
2023-05-19T21:13:34.503Z,13.38
2023-05-19T21:16:09.897Z,13.33
2023-05-19T21:18:42.145Z,13.29
2023-05-19T21:21:14.320Z,13.26
2023-05-19T21:23:46.414Z,13.24
2023-05-19T21:26:20.051Z,13.23
2023-05-19T21:28:52.161Z,13.22
2023-05-19T21:31:24.272Z,13.21
2023-05-19T21:33:56.563Z,13.17
2023-05-19T21:36:28.975Z,13.23
2023-05-19T21:39:03.821Z,13.26
2023-05-19T21:41:35.862Z,13.21
2023-05-19T21:44:08.003Z,13.13
2023-05-19T21:46:45.068Z,13.08
2023-05-19T21:49:17.613Z,13.05
2023-05-19T21:51:49.736Z,12.97
2023-05-19T21:54:21.832Z,12.92
2023-05-19T21:56:54.004Z,12.90
2023-05-19T21:59:26.558Z,12.87
2023-05-19T22:01:59.012Z,12.87
2023-05-19T22:04:32.874Z,12.89
2023-05-19T22:07:08.291Z,12.93
2023-05-19T22:09:40.433Z,12.93
2023-05-19T22:12:12.730Z,12.88
2023-05-19T22:14:45.058Z,12.91
2023-05-19T22:17:17.276Z,12.86
2023-05-19T22:19:49.532Z,12.87
2023-05-19T22:22:21.745Z,12.94
2023-05-19T22:24:53.929Z,12.96
2023-05-19T22:27:26.157Z,13.02
2023-05-19T22:29:59.913Z,13.05
2023-05-19T22:32:32.339Z,13.08
2023-05-19T22:35:06.622Z,13.06
2023-05-19T22:37:38.802Z,13.05
2023-05-19T22:40:14.801Z,13.05
2023-05-19T22:42:46.943Z,13.04
2023-05-19T22:45:19.806Z,13.03
2023-05-19T22:47:52.547Z,13.08
2023-05-19T22:50:24.930Z,13.07
2023-05-19T22:52:57.116Z,12.97
2023-05-19T22:55:29.309Z,12.90
2023-05-19T22:58:01.492Z,12.86
2023-05-19T23:00:33.679Z,12.87
2023-05-19T23:03:05.773Z,12.88
2023-05-19T23:05:37.986Z,12.89
2023-05-19T23:08:10.189Z,12.90
2023-05-19T23:10:42.230Z,12.90
2023-05-19T23:13:14.292Z,12.93
2023-05-19T23:15:46.306Z,12.94
2023-05-19T23:18:18.422Z,12.94
2023-05-19T23:20:50.586Z,12.93
2023-05-19T23:23:22.788Z,12.89
2023-05-19T23:25:54.892Z,12.87
2023-05-19T23:28:26.986Z,12.96
2023-05-19T23:30:59.093Z,13.00
2023-05-19T23:33:31.134Z,12.91
2023-05-19T23:36:08.817Z,12.88
2023-05-19T23:38:41.129Z,12.87
2023-05-19T23:41:13.187Z,12.88
2023-05-19T23:43:45.271Z,12.90
2023-05-19T23:46:17.408Z,12.89
2023-05-19T23:48:49.705Z,12.92
2023-05-19T23:51:21.757Z,12.91
2023-05-19T23:53:53.918Z,12.91
2023-05-19T23:56:26.132Z,12.89
2023-05-19T23:58:58.229Z,12.86
